Terminal Aerodrome Forecast
Issued by NWS Newport/Morehead City, NC

Home | Current Version | Previous Version | Graphics & Text | Print | Product List | Glossary On
Versions: 1 2 3 4 5 6 7 8 9 10 11 12 13 14 15 16 17 18 19 20 21 22 23 24 25 26 27 28 29 30 31 32 33 34
643
FTUS42 KMHX 221206 AAC
TAFEWN
TAF AMD
KEWN 221206Z 2212/2312 03004KT 4SM BR VCSH BKN002
     FM221300 04005KT 6SM BR VCSH SCT005 BKN015
     FM221400 06005KT P6SM VCSH BKN030
     FM221500 07006KT P6SM VCSH BKN045
     FM221700 08005KT 5SM SHRA BKN040
     FM230000 06005KT P6SM OVC030
     FM230600 VRB03KT 4SM BR BKN007=

USA.gov is the U.S. government's official web portal to all federal, state and local government web resources and services.